Time;durP1;ratioP1;P1;durP2;ratioP2;P2;SDS_P1;SDS_P2;PMS_P1;PMS_P2;Temp;Humidity;BMP_temperature;BMP_pressure;BME280_temperature;BME280_humidity;BME280_pressure;Samples;Min_cycle;Max_cycle;Signal;HPM_P1;HPM_P2
2022/08/25 00:00:28;;;;;;;;;;;24.10;68.30;;;;;;5068095;28;19909;-66
2022/08/25 00:02:54;;;;;;;;;;;24.10;69.10;;;;;;5067226;28;19923;-66
2022/08/25 00:05:19;;;;;;;;;;;24.00;68.40;;;;;;5067835;28;19917;-66
2022/08/25 00:07:45;;;;;;;;;;;24.00;68.30;;;;;;5049617;28;19924;-66
2022/08/25 00:10:11;;;;;;;;;;;23.90;68.40;;;;;;5067413;28;20437;-66
2022/08/25 00:12:36;;;;;;;;;;;23.90;68.40;;;;;;5067897;28;19912;-66
2022/08/25 00:15:02;;;;;;;;;;;23.90;68.50;;;;;;5068029;28;19920;-66
2022/08/25 00:17:28;;;;;;;;;;;23.90;68.50;;;;;;5067494;28;20050;-66
2022/08/25 00:19:53;;;;;;;;;;;23.90;68.60;;;;;;5067928;28;20010;-66
2022/08/25 00:22:19;;;;;;;;;;;23.80;68.60;;;;;;5060857;28;19913;-66
2022/08/25 00:24:44;;;;;;;;;;;23.80;68.60;;;;;;5067050;28;20491;-66
2022/08/25 00:27:11;;;;;;;;;;;23.80;68.90;;;;;;5067478;28;20491;-66
2022/08/25 00:29:37;;;;;;;;;;;23.80;68.90;;;;;;5067610;28;19912;-66
2022/08/25 00:32:04;;;;;;;;;;;23.70;68.90;;;;;;5046139;28;20254;-66
2022/08/25 00:34:33;;;;;;;;;;;23.70;68.90;;;;;;5066242;28;20380;-66
2022/08/25 00:36:59;;;;;;;;;;;23.70;68.90;;;;;;5067402;28;19961;-66
2022/08/25 00:39:24;;;;;;;;;;;23.60;68.90;;;;;;5067197;28;20532;-66
2022/08/25 00:41:51;;;;;;;;;;;23.60;69.00;;;;;;5066237;28;19947;-66
2022/08/25 00:44:17;;;;;;;;;;;23.60;69.10;;;;;;5067191;28;19999;-66
2022/08/25 00:46:44;;;;;;;;;;;23.60;69.40;;;;;;5067075;28;20057;-66
2022/08/25 00:49:30;;;;;;;;;;;23.60;69.50;;;;;;5067219;28;20015;-66
2022/08/25 00:51:55;;;;;;;;;;;23.50;69.10;;;;;;5065747;28;20361;-66
2022/08/25 00:54:23;;;;;;;;;;;23.50;69.30;;;;;;5066629;28;19916;-66
2022/08/25 00:56:50;;;;;;;;;;;23.40;69.40;;;;;;5066994;28;20120;-66
2022/08/25 00:59:19;;;;;;;;;;;23.50;70.20;;;;;;5066236;28;19995;-66
2022/08/25 01:01:44;;;;;;;;;;;23.40;69.30;;;;;;5066143;28;20615;-66
2022/08/25 01:04:10;;;;;;;;;;;23.40;70.10;;;;;;5065505;28;20003;-66
2022/08/25 01:06:37;;;;;;;;;;;23.30;69.80;;;;;;5066633;28;19916;-66
2022/08/25 01:09:04;;;;;;;;;;;23.30;69.70;;;;;;5066481;28;20019;-66
2022/08/25 01:11:29;;;;;;;;;;;23.30;69.90;;;;;;5066154;28;19920;-66
2022/08/25 01:13:55;;;;;;;;;;;23.30;69.80;;;;;;5067020;28;19912;-66
2022/08/25 01:16:21;;;;;;;;;;;23.30;70.00;;;;;;5067155;28;19908;-66
2022/08/25 01:18:46;;;;;;;;;;;23.20;69.90;;;;;;5066514;28;19920;-66
2022/08/25 01:21:12;;;;;;;;;;;23.20;69.80;;;;;;5066108;28;19916;-66
2022/08/25 01:23:38;;;;;;;;;;;23.20;70.00;;;;;;5065938;28;20421;-66
2022/08/25 01:26:12;;;;;;;;;;;23.10;69.90;;;;;;5066205;28;19943;-66
2022/08/25 01:29:19;;;;;;;;;;;23.10;70.00;;;;;;5066667;28;20364;-66
2022/08/25 01:31:25;;;;;;;;;;;23.10;70.30;;;;;;5065948;28;20731;-66
2022/08/25 01:33:50;;;;;;;;;;;23.10;70.50;;;;;;5062777;28;19943;-66
2022/08/25 01:36:20;;;;;;;;;;;23.00;70.30;;;;;;5066311;28;19912;-66
2022/08/25 01:38:45;;;;;;;;;;;23.00;70.20;;;;;;5059388;28;19916;-66
2022/08/25 01:41:11;;;;;;;;;;;23.00;70.00;;;;;;5065965;28;19920;-67
2022/08/25 01:43:37;;;;;;;;;;;23.00;70.40;;;;;;5066022;28;19920;-66
2022/08/25 01:46:03;;;;;;;;;;;23.00;70.50;;;;;;5065935;28;19912;-66
2022/08/25 01:48:28;;;;;;;;;;;22.90;70.50;;;;;;5065715;28;19923;-66
2022/08/25 01:50:54;;;;;;;;;;;22.90;70.50;;;;;;5065709;28;19916;-66
2022/08/25 01:53:26;;;;;;;;;;;22.90;70.70;;;;;;5066013;28;19912;-66
2022/08/25 01:55:52;;;;;;;;;;;22.90;70.50;;;;;;5065918;28;19931;-66
2022/08/25 01:58:18;;;;;;;;;;;22.80;70.50;;;;;;5066032;28;19913;-66
2022/08/25 02:00:45;;;;;;;;;;;22.80;70.60;;;;;;5065058;28;19916;-66
2022/08/25 02:03:11;;;;;;;;;;;22.80;70.70;;;;;;5064698;28;19908;-66
2022/08/25 02:05:36;;;;;;;;;;;22.80;70.70;;;;;;5065495;28;19999;-66
2022/08/25 02:08:02;;;;;;;;;;;22.70;70.60;;;;;;5065954;28;19924;-66
2022/08/25 02:10:27;;;;;;;;;;;22.70;70.80;;;;;;5065563;28;19935;-66
2022/08/25 02:12:53;;;;;;;;;;;22.70;70.80;;;;;;5065196;28;19962;-66
2022/08/25 02:15:19;;;;;;;;;;;22.70;71.00;;;;;;5065872;28;20368;-66
2022/08/25 02:17:44;;;;;;;;;;;22.60;71.10;;;;;;5066119;28;19912;-66
2022/08/25 02:20:10;;;;;;;;;;;22.60;71.10;;;;;;5065710;28;19916;-66
2022/08/25 02:22:36;;;;;;;;;;;22.60;70.90;;;;;;5046921;28;19912;-66
2022/08/25 02:25:01;;;;;;;;;;;22.60;70.80;;;;;;5065904;28;20020;-66
2022/08/25 02:27:27;;;;;;;;;;;22.60;70.90;;;;;;5065596;28;20610;-66
2022/08/25 02:29:52;;;;;;;;;;;22.50;71.10;;;;;;5065740;28;20010;-66
2022/08/25 02:32:18;;;;;;;;;;;22.50;71.30;;;;;;5061457;28;19921;-66
2022/08/25 02:34:43;;;;;;;;;;;22.50;71.20;;;;;;5065504;28;20015;-66
2022/08/25 02:37:09;;;;;;;;;;;22.50;71.10;;;;;;5065638;28;19919;-66
2022/08/25 02:39:35;;;;;;;;;;;22.40;71.20;;;;;;5065722;28;19923;-66
2022/08/25 02:42:02;;;;;;;;;;;22.40;70.90;;;;;;5065565;28;19908;-66
2022/08/25 02:44:27;;;;;;;;;;;22.40;71.20;;;;;;5047164;28;19954;-66
2022/08/25 02:46:53;;;;;;;;;;;22.40;71.10;;;;;;5065264;28;19936;-66
2022/08/25 02:49:18;;;;;;;;;;;22.40;71.30;;;;;;5065555;28;20026;-66
2022/08/25 02:51:44;;;;;;;;;;;22.40;71.50;;;;;;5065627;28;19916;-66
2022/08/25 02:54:09;;;;;;;;;;;22.30;71.50;;;;;;5065963;28;20007;-66
2022/08/25 02:56:35;;;;;;;;;;;22.30;71.60;;;;;;5065611;28;19924;-66
2022/08/25 02:59:01;;;;;;;;;;;22.30;71.60;;;;;;5065316;28;19913;-66
2022/08/25 03:01:27;;;;;;;;;;;22.20;71.40;;;;;;5062731;28;19913;-66
2022/08/25 03:03:53;;;;;;;;;;;22.20;71.60;;;;;;5064654;28;19916;-66
2022/08/25 03:06:21;;;;;;;;;;;22.20;71.70;;;;;;5065201;28;19916;-66
2022/08/25 03:08:47;;;;;;;;;;;22.20;71.70;;;;;;5062430;28;19916;-66
2022/08/25 03:11:13;;;;;;;;;;;22.20;71.70;;;;;;5064871;28;19919;-66
2022/08/25 03:13:38;;;;;;;;;;;22.20;71.80;;;;;;5046853;28;19916;-66
2022/08/25 03:16:05;;;;;;;;;;;22.10;71.60;;;;;;5064894;28;19920;-66
2022/08/25 03:18:30;;;;;;;;;;;22.10;72.00;;;;;;5063501;28;20486;-66
2022/08/25 03:20:56;;;;;;;;;;;22.10;71.90;;;;;;5063211;28;19920;-66
2022/08/25 03:23:21;;;;;;;;;;;22.10;72.00;;;;;;5066919;28;19913;-66
2022/08/25 03:28:32;;;;;;;;;;;22.00;72.00;;;;;;5068944;28;20013;-67
2022/08/25 03:30:59;;;;;;;;;;;22.00;72.00;;;;;;5068340;28;19917;-66
2022/08/25 03:33:25;;;;;;;;;;;22.00;72.00;;;;;;5068606;28;19954;-67
2022/08/25 03:35:51;;;;;;;;;;;22.00;72.00;;;;;;5068759;28;19944;-66
2022/08/25 03:38:16;;;;;;;;;;;22.00;72.20;;;;;;5068870;28;20402;-66
2022/08/25 03:40:42;;;;;;;;;;;22.00;72.20;;;;;;5050342;28;19956;-66
2022/08/25 03:43:07;;;;;;;;;;;21.90;72.20;;;;;;5068722;28;19958;-66
2022/08/25 03:45:33;;;;;;;;;;;21.90;72.30;;;;;;5068640;28;20305;-66
2022/08/25 03:47:58;;;;;;;;;;;21.90;72.40;;;;;;5068679;28;20381;-66
2022/08/25 03:50:24;;;;;;;;;;;21.90;72.40;;;;;;5067925;28;19917;-66
2022/08/25 03:52:52;;;;;;;;;;;21.80;72.30;;;;;;5068052;28;19916;-66
2022/08/25 03:55:18;;;;;;;;;;;21.80;72.40;;;;;;5068153;28;19919;-66
2022/08/25 03:57:43;;;;;;;;;;;21.80;72.50;;;;;;5068617;28;19912;-66
2022/08/25 04:00:11;;;;;;;;;;;21.80;72.50;;;;;;5050235;28;19958;-66
2022/08/25 04:02:36;;;;;;;;;;;21.80;72.60;;;;;;5067301;28;20326;-66
2022/08/25 04:05:02;;;;;;;;;;;21.80;72.50;;;;;;5068324;28;19920;-66
2022/08/25 04:07:27;;;;;;;;;;;21.70;72.50;;;;;;5068000;28;19917;-66
2022/08/25 04:09:53;;;;;;;;;;;21.70;72.60;;;;;;5068023;28;19912;-66
2022/08/25 04:12:19;;;;;;;;;;;21.70;72.70;;;;;;5068058;28;19963;-66
2022/08/25 04:14:44;;;;;;;;;;;21.70;72.70;;;;;;5068083;28;19916;-66
2022/08/25 04:17:10;;;;;;;;;;;21.70;72.70;;;;;;5068316;28;19982;-66
2022/08/25 04:19:36;;;;;;;;;;;21.70;72.70;;;;;;5067538;28;19948;-66
2022/08/25 04:22:01;;;;;;;;;;;21.60;72.70;;;;;;5067367;28;20006;-66
2022/08/25 04:24:27;;;;;;;;;;;21.60;72.80;;;;;;5050091;28;19962;-66
2022/08/25 04:26:53;;;;;;;;;;;21.60;72.80;;;;;;5050036;28;20018;-66
2022/08/25 04:29:20;;;;;;;;;;;21.60;73.00;;;;;;5049649;28;19928;-66
2022/08/25 04:31:48;;;;;;;;;;;21.60;73.00;;;;;;5066824;28;19991;-66
2022/08/25 04:34:15;;;;;;;;;;;21.50;73.00;;;;;;5066612;28;19917;-66
2022/08/25 04:36:40;;;;;;;;;;;21.50;73.00;;;;;;5067896;28;19913;-66
2022/08/25 04:39:06;;;;;;;;;;;21.50;73.00;;;;;;5067574;28;19913;-66
2022/08/25 04:41:31;;;;;;;;;;;21.50;73.00;;;;;;5067441;28;19920;-67
2022/08/25 04:43:58;;;;;;;;;;;21.50;73.10;;;;;;5067483;28;19920;-66
2022/08/25 04:46:25;;;;;;;;;;;21.50;73.00;;;;;;5067117;28;19999;-66
2022/08/25 04:48:51;;;;;;;;;;;21.50;73.00;;;;;;5067350;28;19924;-66
2022/08/25 04:51:18;;;;;;;;;;;21.50;73.10;;;;;;5066981;28;19923;-66
2022/08/25 04:53:44;;;;;;;;;;;21.50;73.00;;;;;;5067253;28;19923;-66
2022/08/25 04:56:14;;;;;;;;;;;21.40;73.10;;;;;;5067234;28;20376;-66
2022/08/25 04:58:40;;;;;;;;;;;21.40;73.10;;;;;;5067413;28;19912;-68
2022/08/25 05:01:05;;;;;;;;;;;21.40;73.10;;;;;;5063573;28;19917;-66
2022/08/25 05:03:31;;;;;;;;;;;21.40;73.10;;;;;;5066250;28;19940;-66
2022/08/25 05:05:56;;;;;;;;;;;21.40;73.10;;;;;;5067179;28;19917;-66
2022/08/25 05:08:22;;;;;;;;;;;21.40;73.10;;;;;;5066889;28;19924;-66
2022/08/25 05:10:49;;;;;;;;;;;21.40;73.20;;;;;;5066592;28;19912;-66
2022/08/25 05:13:14;;;;;;;;;;;21.40;73.10;;;;;;5049048;28;19924;-66
2022/08/25 05:15:49;;;;;;;;;;;21.30;73.10;;;;;;5067156;28;19912;-66
2022/08/25 05:18:15;;;;;;;;;;;21.30;73.20;;;;;;5066817;28;20782;-66
2022/08/25 05:20:40;;;;;;;;;;;21.30;73.20;;;;;;5066414;28;20007;-66
2022/08/25 05:23:06;;;;;;;;;;;21.30;73.20;;;;;;5066707;28;20003;-66
2022/08/25 05:25:31;;;;;;;;;;;21.30;73.30;;;;;;5066484;28;20254;-66
2022/08/25 05:27:57;;;;;;;;;;;21.30;73.10;;;;;;5066578;28;19917;-66
2022/08/25 05:30:22;;;;;;;;;;;21.30;73.30;;;;;;5066347;28;20411;-66
2022/08/25 05:32:48;;;;;;;;;;;21.30;73.20;;;;;;5066397;28;20434;-66
2022/08/25 05:35:14;;;;;;;;;;;21.30;73.40;;;;;;5066203;28;20660;-66
2022/08/25 05:37:40;;;;;;;;;;;21.30;73.30;;;;;;5066677;28;19938;-66
2022/08/25 05:40:07;;;;;;;;;;;21.30;73.40;;;;;;5066387;28;19913;-66
2022/08/25 05:42:32;;;;;;;;;;;21.30;73.40;;;;;;5066165;28;19916;-66
2022/08/25 05:44:58;;;;;;;;;;;21.30;73.40;;;;;;5066129;28;20528;-66
2022/08/25 05:47:23;;;;;;;;;;;21.30;73.30;;;;;;5066524;28;19916;-66
2022/08/25 05:49:49;;;;;;;;;;;21.20;73.30;;;;;;5066366;28;20721;-66
2022/08/25 05:52:15;;;;;;;;;;;21.20;73.30;;;;;;5065529;28;19955;-66
2022/08/25 05:54:40;;;;;;;;;;;21.20;73.30;;;;;;5066284;28;19912;-66
2022/08/25 05:57:06;;;;;;;;;;;21.20;73.30;;;;;;5065936;28;19916;-66
2022/08/25 05:59:32;;;;;;;;;;;21.20;73.40;;;;;;5066256;28;19947;-66
2022/08/25 06:04:41;;;;;;;;;;;21.20;73.30;;;;;;5066056;28;20047;-66
2022/08/25 06:07:07;;;;;;;;;;;21.20;73.40;;;;;;5065739;28;20002;-66
2022/08/25 06:09:33;;;;;;;;;;;21.20;73.30;;;;;;5065254;28;19919;-67
2022/08/25 06:11:58;;;;;;;;;;;21.20;73.40;;;;;;5065047;28;19962;-67
2022/08/25 06:14:24;;;;;;;;;;;21.20;73.30;;;;;;5047170;28;19916;-66
2022/08/25 06:16:50;;;;;;;;;;;21.20;73.30;;;;;;5065771;28;19966;-66
2022/08/25 06:19:16;;;;;;;;;;;21.20;73.30;;;;;;5065663;28;19916;-66
2022/08/25 06:21:41;;;;;;;;;;;21.20;73.10;;;;;;5065356;28;19931;-66
2022/08/25 06:24:08;;;;;;;;;;;21.20;73.30;;;;;;5065985;28;19913;-66
2022/08/25 06:26:34;;;;;;;;;;;21.20;73.30;;;;;;5065851;28;20011;-66
2022/08/25 06:28:59;;;;;;;;;;;21.20;73.10;;;;;;5065798;28;20444;-66
2022/08/25 06:31:25;;;;;;;;;;;21.20;73.00;;;;;;5065864;28;19909;-66
2022/08/25 06:33:51;;;;;;;;;;;21.20;72.80;;;;;;5065917;28;19916;-66
2022/08/25 06:36:18;;;;;;;;;;;21.20;73.00;;;;;;5065796;28;19913;-66
2022/08/25 06:38:44;;;;;;;;;;;21.30;73.10;;;;;;5065233;28;19984;-66
2022/08/25 06:41:11;;;;;;;;;;;21.30;73.10;;;;;;5065752;28;20351;-66
2022/08/25 06:43:38;;;;;;;;;;;21.20;72.80;;;;;;5059260;28;19916;-66
2022/08/25 06:46:23;;;;;;;;;;;21.30;72.80;;;;;;5065210;28;20325;-66
2022/08/25 06:48:48;;;;;;;;;;;21.30;73.10;;;;;;5061532;28;19999;-66
2022/08/25 06:51:15;;;;;;;;;;;21.30;72.90;;;;;;5065189;28;20027;-66
2022/08/25 06:53:41;;;;;;;;;;;21.30;72.70;;;;;;5060398;28;19908;-66
2022/08/25 06:56:08;;;;;;;;;;;21.30;72.70;;;;;;5065471;28;19913;-66
2022/08/25 06:58:34;;;;;;;;;;;21.30;72.70;;;;;;5067421;28;19912;-66
2022/08/25 07:01:09;;;;;;;;;;;21.30;72.60;;;;;;5069132;28;19924;-66
2022/08/25 07:03:35;;;;;;;;;;;21.30;72.60;;;;;;5062635;28;19969;-66
2022/08/25 07:06:01;;;;;;;;;;;21.30;72.60;;;;;;5050948;28;19935;-66
2022/08/25 07:08:26;;;;;;;;;;;21.30;72.60;;;;;;5069562;28;20051;-66
2022/08/25 07:10:52;;;;;;;;;;;21.30;72.50;;;;;;5069202;28;20535;-66
2022/08/25 07:13:17;;;;;;;;;;;21.30;72.50;;;;;;5069325;28;20537;-66
2022/08/25 07:15:43;;;;;;;;;;;21.40;72.40;;;;;;5069147;28;19916;-66
2022/08/25 07:18:10;;;;;;;;;;;21.40;72.40;;;;;;5069392;28;19913;-66
2022/08/25 07:20:36;;;;;;;;;;;21.40;72.30;;;;;;5062814;28;19908;-66
2022/08/25 07:23:02;;;;;;;;;;;21.40;72.30;;;;;;5069244;28;20033;-66
2022/08/25 07:25:27;;;;;;;;;;;21.40;72.40;;;;;;5069226;28;20379;-66
2022/08/25 07:27:53;;;;;;;;;;;21.40;72.30;;;;;;5034503;28;19913;-66
2022/08/25 07:30:18;;;;;;;;;;;21.40;72.20;;;;;;5068481;28;19943;-66
2022/08/25 07:32:44;;;;;;;;;;;21.50;72.10;;;;;;5068577;28;19916;-66
2022/08/25 07:35:16;;;;;;;;;;;21.50;72.10;;;;;;5068991;28;19912;-66
2022/08/25 07:37:45;;;;;;;;;;;21.50;72.10;;;;;;5069049;28;19909;-66
2022/08/25 07:40:12;;;;;;;;;;;21.50;72.10;;;;;;5068700;28;19912;-66
2022/08/25 07:42:37;;;;;;;;;;;21.50;72.00;;;;;;5050254;28;20000;-67
2022/08/25 07:45:04;;;;;;;;;;;21.50;71.90;;;;;;5068436;28;20011;-66
2022/08/25 07:47:30;;;;;;;;;;;21.50;71.90;;;;;;5068047;28;19916;-66
2022/08/25 07:49:56;;;;;;;;;;;21.60;72.00;;;;;;5068726;28;20355;-66
2022/08/25 07:52:21;;;;;;;;;;;21.60;71.80;;;;;;5068330;28;19999;-66
2022/08/25 07:54:47;;;;;;;;;;;21.60;72.00;;;;;;5068420;28;19913;-66
2022/08/25 07:57:12;;;;;;;;;;;21.70;71.80;;;;;;5068738;28;19912;-66
2022/08/25 07:59:39;;;;;;;;;;;21.70;71.80;;;;;;5068455;28;19931;-66
2022/08/25 08:02:05;;;;;;;;;;;21.70;71.60;;;;;;5065375;28;19927;-66
2022/08/25 08:04:31;;;;;;;;;;;21.80;71.70;;;;;;5066615;28;19943;-66
2022/08/25 08:06:56;;;;;;;;;;;21.80;71.50;;;;;;5068851;28;19912;-66
2022/08/25 08:09:22;;;;;;;;;;;21.80;71.40;;;;;;5066980;28;19987;-66
2022/08/25 08:11:47;;;;;;;;;;;21.80;71.30;;;;;;5068209;28;19912;-66
2022/08/25 08:14:13;;;;;;;;;;;21.80;71.40;;;;;;5068089;28;20338;-66
2022/08/25 08:16:39;;;;;;;;;;;21.90;71.20;;;;;;5068411;28;19962;-66
2022/08/25 08:19:04;;;;;;;;;;;21.90;71.30;;;;;;5068243;28;20019;-66
2022/08/25 08:21:31;;;;;;;;;;;21.90;71.10;;;;;;5067744;28;19944;-66
2022/08/25 08:23:58;;;;;;;;;;;22.00;71.10;;;;;;5067636;28;19917;-66
2022/08/25 08:26:23;;;;;;;;;;;22.00;70.90;;;;;;5067688;28;19912;-66
2022/08/25 08:28:50;;;;;;;;;;;22.00;70.90;;;;;;5067493;28;19923;-66
2022/08/25 08:31:19;;;;;;;;;;;22.00;71.00;;;;;;5060791;28;19955;-66
2022/08/25 08:33:46;;;;;;;;;;;22.10;71.10;;;;;;5067664;28;20000;-66
2022/08/25 08:36:12;;;;;;;;;;;22.10;70.90;;;;;;5059732;28;19958;-66
2022/08/25 08:38:38;;;;;;;;;;;22.10;70.70;;;;;;5067468;28;19912;-66
2022/08/25 08:44:26;;;;;;;;;;;22.20;70.70;;;;;;5067444;28;20391;-66
2022/08/25 08:47:18;;;;;;;;;;;22.30;70.50;;;;;;5061211;28;19919;-66
2022/08/25 08:49:44;;;;;;;;;;;22.30;70.50;;;;;;5030990;28;20394;-66
2022/08/25 08:52:13;;;;;;;;;;;22.40;70.30;;;;;;5067380;28;19969;-66
2022/08/25 08:54:40;;;;;;;;;;;22.40;70.30;;;;;;5067545;28;19948;-66
2022/08/25 08:57:11;;;;;;;;;;;22.50;70.20;;;;;;5067544;28;19958;-66
2022/08/25 08:59:40;;;;;;;;;;;22.50;70.10;;;;;;5065967;28;20712;-66
2022/08/25 09:02:11;;;;;;;;;;;22.60;70.10;;;;;;5064591;28;19916;-66
2022/08/25 09:04:50;;;;;;;;;;;22.60;69.80;;;;;;5067269;28;20341;-67
2022/08/25 09:07:22;;;;;;;;;;;22.60;69.90;;;;;;5067174;28;19997;-66
2022/08/25 09:09:47;;;;;;;;;;;22.70;69.90;;;;;;5066834;28;19917;-66
2022/08/25 09:12:13;;;;;;;;;;;22.70;69.60;;;;;;5066167;28;20286;-66
2022/08/25 09:14:47;;;;;;;;;;;22.70;69.30;;;;;;5066953;28;19969;-66
2022/08/25 09:17:22;;;;;;;;;;;22.80;69.30;;;;;;5066647;28;20007;-66
2022/08/25 09:20:10;;;;;;;;;;;22.80;69.30;;;;;;5066688;28;19913;-66
2022/08/25 09:22:59;;;;;;;;;;;22.90;69.30;;;;;;5066305;28;19913;-66
2022/08/25 09:25:29;;;;;;;;;;;23.00;69.40;;;;;;5066627;28;19912;-66
2022/08/25 09:28:11;;;;;;;;;;;23.00;68.90;;;;;;5066308;28;19920;-66
2022/08/25 09:30:52;;;;;;;;;;;23.00;68.80;;;;;;5061268;28;20026;-67
2022/08/25 09:33:19;;;;;;;;;;;23.10;68.80;;;;;;5066787;28;20390;-67
2022/08/25 09:35:45;;;;;;;;;;;23.20;68.90;;;;;;5066827;28;20636;-67
2022/08/25 09:38:12;;;;;;;;;;;23.30;68.80;;;;;;5066790;28;20015;-66
2022/08/25 09:40:39;;;;;;;;;;;23.30;68.70;;;;;;5065820;28;19912;-66
2022/08/25 09:43:16;;;;;;;;;;;23.40;68.80;;;;;;5065866;28;19950;-66
2022/08/25 09:45:44;;;;;;;;;;;23.40;68.70;;;;;;5066132;28;19912;-67
2022/08/25 09:48:20;;;;;;;;;;;23.40;68.80;;;;;;5066110;28;19920;-66
2022/08/25 09:50:45;;;;;;;;;;;23.50;68.90;;;;;;5065625;28;19913;-67
2022/08/25 09:53:13;;;;;;;;;;;23.60;68.60;;;;;;5066262;28;19913;-66
2022/08/25 09:55:40;;;;;;;;;;;23.60;68.30;;;;;;5066161;28;19919;-66
2022/08/25 09:58:14;;;;;;;;;;;23.60;68.30;;;;;;5065666;28;19924;-66
2022/08/25 10:00:39;;;;;;;;;;;23.70;68.40;;;;;;5065594;28;19917;-67
2022/08/25 10:03:17;;;;;;;;;;;23.70;68.30;;;;;;5047721;28;19986;-67
2022/08/25 10:05:45;;;;;;;;;;;23.80;68.70;;;;;;5065771;28;19920;-67
2022/08/25 10:08:12;;;;;;;;;;;23.80;68.90;;;;;;5065859;28;20418;-67
2022/08/25 10:10:45;;;;;;;;;;;23.90;68.10;;;;;;5065478;28;19947;-67
2022/08/25 10:13:16;;;;;;;;;;;23.90;68.20;;;;;;5059357;28;19921;-67
2022/08/25 10:15:42;;;;;;;;;;;24.00;68.00;;;;;;5065226;28;19912;-67
2022/08/25 10:18:24;;;;;;;;;;;24.10;67.90;;;;;;5065210;28;19925;-68
2022/08/25 10:21:02;;;;;;;;;;;24.10;68.00;;;;;;5061654;28;20506;-66
2022/08/25 10:23:28;;;;;;;;;;;24.10;67.80;;;;;;5066173;28;20054;-66
2022/08/25 10:25:54;;;;;;;;;;;24.20;67.70;;;;;;5065816;28;20431;-67
2022/08/25 10:28:31;;;;;;;;;;;24.30;67.70;;;;;;5065449;28;19972;-66
2022/08/25 10:30:59;;;;;;;;;;;24.30;67.80;;;;;;5065645;28;19912;-66
2022/08/25 10:33:26;;;;;;;;;;;24.40;67.80;;;;;;5065066;28;19916;-66
2022/08/25 10:36:00;;;;;;;;;;;24.40;67.70;;;;;;5065836;28;19962;-66
2022/08/25 10:38:31;;;;;;;;;;;24.60;68.00;;;;;;5065780;28;19912;-67
2022/08/25 10:41:16;;;;;;;;;;;24.70;67.90;;;;;;5065496;28;20011;-66
2022/08/25 10:44:00;;;;;;;;;;;24.70;68.20;;;;;;5065637;28;19977;-66
2022/08/25 10:46:25;;;;;;;;;;;24.90;68.30;;;;;;5065404;28;19923;-67
2022/08/25 10:48:54;;;;;;;;;;;25.00;68.30;;;;;;5065612;28;19917;-66
2022/08/25 10:51:34;;;;;;;;;;;25.10;68.30;;;;;;5062357;28;20750;-67
2022/08/25 10:53:59;;;;;;;;;;;25.20;68.50;;;;;;5065709;28;19916;-66
2022/08/25 10:56:28;;;;;;;;;;;25.30;68.30;;;;;;5065103;28;20463;-66
2022/08/25 10:58:53;;;;;;;;;;;25.40;68.40;;;;;;5065452;28;19909;-67
2022/08/25 11:01:34;;;;;;;;;;;25.50;68.30;;;;;;5064810;28;19942;-66
2022/08/25 11:04:03;;;;;;;;;;;25.60;68.40;;;;;;5058661;28;19926;-67
2022/08/25 11:06:36;;;;;;;;;;;25.70;67.70;;;;;;5065857;28;20327;-67
2022/08/25 11:09:04;;;;;;;;;;;25.80;67.90;;;;;;5059142;28;19923;-67
2022/08/25 11:11:36;;;;;;;;;;;25.90;68.10;;;;;;5058757;28;19958;-67
2022/08/25 11:14:07;;;;;;;;;;;26.10;67.90;;;;;;5065015;28;19917;-67
2022/08/25 11:16:32;;;;;;;;;;;26.20;68.30;;;;;;5047140;28;19913;-67
2022/08/25 11:19:05;;;;;;;;;;;26.30;68.20;;;;;;5065403;28;19962;-67
2022/08/25 11:21:37;;;;;;;;;;;26.40;67.60;;;;;;5064969;28;19912;-67
2022/08/25 11:24:09;;;;;;;;;;;26.50;68.30;;;;;;5064850;28;19912;-67
2022/08/25 11:26:36;;;;;;;;;;;26.60;68.20;;;;;;5064263;28;20405;-67
2022/08/25 11:29:04;;;;;;;;;;;26.70;68.20;;;;;;5064881;28;20021;-67
2022/08/25 11:31:36;;;;;;;;;;;26.80;68.50;;;;;;5064849;28;20004;-67
2022/08/25 11:34:01;;;;;;;;;;;27.00;68.20;;;;;;5065270;28;19912;-67
2022/08/25 11:36:34;;;;;;;;;;;27.10;68.30;;;;;;5064292;28;19913;-67
2022/08/25 11:39:03;;;;;;;;;;;27.20;68.40;;;;;;5063198;28;20571;-67
2022/08/25 11:41:54;;;;;;;;;;;27.30;68.20;;;;;;5062694;28;19939;-67
2022/08/25 11:44:34;;;;;;;;;;;27.30;68.00;;;;;;5065239;28;19921;-67
2022/08/25 11:47:02;;;;;;;;;;;27.50;68.20;;;;;;5068772;28;20373;-67
2022/08/25 11:49:37;;;;;;;;;;;27.60;68.30;;;;;;5068828;28;19927;-67
2022/08/25 11:52:04;;;;;;;;;;;27.60;68.30;;;;;;5067966;28;19913;-68
2022/08/25 11:54:34;;;;;;;;;;;27.70;68.10;;;;;;5068548;28;19936;-67
2022/08/25 11:57:02;;;;;;;;;;;27.80;68.10;;;;;;5068726;28;19992;-67
2022/08/25 11:59:46;;;;;;;;;;;27.90;67.90;;;;;;5067005;28;19916;-67
2022/08/25 12:02:28;;;;;;;;;;;28.00;68.10;;;;;;5063545;28;19927;-67
2022/08/25 12:04:55;;;;;;;;;;;28.10;68.10;;;;;;5068359;28;19991;-67
2022/08/25 12:07:22;;;;;;;;;;;28.10;68.00;;;;;;5068324;28;19912;-67
2022/08/25 12:09:47;;;;;;;;;;;28.20;68.10;;;;;;5067673;28;20003;-67
2022/08/25 12:12:31;;;;;;;;;;;28.30;68.00;;;;;;5067144;28;20004;-67
2022/08/25 12:15:32;;;;;;;;;;;28.40;67.90;;;;;;5067737;28;19915;-67
2022/08/25 12:18:16;;;;;;;;;;;28.50;67.80;;;;;;4985863;28;19921;-67
2022/08/25 12:20:56;;;;;;;;;;;28.50;67.90;;;;;;5060509;28;19988;-67
2022/08/25 12:23:42;;;;;;;;;;;28.60;67.90;;;;;;5067644;28;20444;-67
2022/08/25 12:26:07;;;;;;;;;;;28.60;67.50;;;;;;5066830;28;20416;-67
2022/08/25 12:28:36;;;;;;;;;;;28.70;67.50;;;;;;5066627;28;19912;-67
2022/08/25 12:31:06;;;;;;;;;;;28.80;67.60;;;;;;5065881;28;19913;-67
2022/08/25 12:33:47;;;;;;;;;;;28.80;67.80;;;;;;5067360;28;19913;-67
2022/08/25 12:36:25;;;;;;;;;;;28.90;67.90;;;;;;5067991;28;20384;-68
2022/08/25 12:38:51;;;;;;;;;;;28.90;67.90;;;;;;5067817;28;19923;-67
2022/08/25 12:41:21;;;;;;;;;;;29.00;68.50;;;;;;5065685;28;19912;-67
2022/08/25 12:43:48;;;;;;;;;;;29.10;67.90;;;;;;5067375;28;19920;-67
2022/08/25 12:46:29;;;;;;;;;;;29.10;67.70;;;;;;5067312;28;19909;-67
2022/08/25 12:48:59;;;;;;;;;;;29.20;67.70;;;;;;5066270;28;20877;-67
2022/08/25 12:51:34;;;;;;;;;;;29.20;67.60;;;;;;5064392;28;20000;-67
2022/08/25 12:54:11;;;;;;;;;;;29.30;67.80;;;;;;5067342;28;19909;-67
2022/08/25 12:56:40;;;;;;;;;;;29.30;67.90;;;;;;5066686;28;19962;-67
2022/08/25 12:59:11;;;;;;;;;;;29.40;67.80;;;;;;5067169;28;19958;-68
2022/08/25 13:01:58;;;;;;;;;;;29.40;67.70;;;;;;5048158;28;19965;-67
2022/08/25 13:04:32;;;;;;;;;;;29.50;67.80;;;;;;5062496;28;19912;-67
2022/08/25 13:07:09;;;;;;;;;;;29.50;67.70;;;;;;5067247;28;19912;-67
2022/08/25 13:09:57;;;;;;;;;;;29.60;67.70;;;;;;5067033;28;19921;-67
2022/08/25 13:12:41;;;;;;;;;;;29.70;67.80;;;;;;5066604;28;19939;-67
2022/08/25 13:15:10;;;;;;;;;;;29.70;67.50;;;;;;5066585;28;20497;-68
2022/08/25 13:17:36;;;;;;;;;;;29.80;67.30;;;;;;5066514;28;19912;-67
2022/08/25 13:20:18;;;;;;;;;;;29.80;67.30;;;;;;5066128;28;20006;-67
2022/08/25 13:22:49;;;;;;;;;;;29.80;67.20;;;;;;5049058;28;20059;-67
2022/08/25 13:25:18;;;;;;;;;;;29.90;67.00;;;;;;5066684;28;20330;-68
2022/08/25 13:27:47;;;;;;;;;;;30.00;67.00;;;;;;5066825;28;19995;-67
2022/08/25 13:30:32;;;;;;;;;;;30.00;66.80;;;;;;5064038;28;19951;-67
2022/08/25 13:32:58;;;;;;;;;;;30.10;66.60;;;;;;5060426;28;19912;-67
2022/08/25 13:35:29;;;;;;;;;;;30.10;65.60;;;;;;5066281;28;19913;-67
2022/08/25 13:38:10;;;;;;;;;;;30.20;66.40;;;;;;5066096;28;19916;-67
2022/08/25 13:40:36;;;;;;;;;;;30.20;66.50;;;;;;5065953;28;19934;-67
2022/08/25 13:43:04;;;;;;;;;;;30.30;66.40;;;;;;5066485;28;20288;-67
2022/08/25 13:45:33;;;;;;;;;;;30.30;66.20;;;;;;5066706;28;19912;-68
2022/08/25 13:47:58;;;;;;;;;;;30.40;66.40;;;;;;5066038;28;20005;-67
2022/08/25 13:50:24;;;;;;;;;;;30.40;66.20;;;;;;5066056;28;19951;-67
2022/08/25 13:52:52;;;;;;;;;;;30.50;66.10;;;;;;5065743;28;19912;-67
2022/08/25 13:55:19;;;;;;;;;;;30.50;66.20;;;;;;5066293;28;19912;-67
2022/08/25 13:57:44;;;;;;;;;;;30.50;65.90;;;;;;5048257;28;19916;-67
2022/08/25 14:00:11;;;;;;;;;;;30.60;65.90;;;;;;5065804;28;20697;-67
2022/08/25 14:02:39;;;;;;;;;;;30.60;65.80;;;;;;5059638;28;19913;-67
2022/08/25 14:05:05;;;;;;;;;;;30.70;65.90;;;;;;5048162;28;19916;-67
2022/08/25 14:07:31;;;;;;;;;;;30.70;65.70;;;;;;5065001;28;19914;-68
2022/08/25 14:09:59;;;;;;;;;;;30.70;65.40;;;;;;5066123;28;19924;-67
2022/08/25 14:12:25;;;;;;;;;;;30.80;65.30;;;;;;5066018;28;19920;-67
2022/08/25 14:15:03;;;;;;;;;;;30.80;65.40;;;;;;5066394;28;19913;-67
2022/08/25 14:17:29;;;;;;;;;;;30.80;65.30;;;;;;5065969;28;19912;-67
2022/08/25 14:19:56;;;;;;;;;;;30.80;65.20;;;;;;5066048;28;19917;-67
2022/08/25 14:22:21;;;;;;;;;;;30.90;65.00;;;;;;5065991;28;19912;-67
2022/08/25 14:24:47;;;;;;;;;;;30.90;65.00;;;;;;5065189;28;20679;-67
2022/08/25 14:27:12;;;;;;;;;;;31.00;65.00;;;;;;5065930;28;19916;-67
2022/08/25 14:29:38;;;;;;;;;;;31.00;65.00;;;;;;5065448;28;20658;-67
2022/08/25 14:32:03;;;;;;;;;;;31.00;64.80;;;;;;5065078;28;19924;-67